Time;durP1;ratioP1;P1;durP2;ratioP2;P2;SDS_P1;SDS_P2;PMS_P1;PMS_P2;Temp;Humidity;BMP_temperature;BMP_pressure;BME280_temperature;BME280_humidity;BME280_pressure;Samples;Min_cycle;Max_cycle;Signal;HPM_P1;HPM_P2
2022/01/21 00:02:41;;;;;;;6.53;3.60;;;4.90;99.90;;;;;;10508271;28;20562;-79
2022/01/21 00:07:43;;;;;;;8.30;3.53;;;4.90;99.90;;;;;;10509040;28;20225;-80
2022/01/21 00:12:51;;;;;;;5.43;3.03;;;4.80;99.90;;;;;;10494653;28;20670;-79
2022/01/21 00:17:53;;;;;;;6.47;3.47;;;4.80;99.90;;;;;;10502289;28;20308;-80
2022/01/21 00:33:36;;;;;;;5.10;2.80;;;4.80;99.90;;;;;;10507989;28;20196;-80
2022/01/21 00:38:42;;;;;;;6.13;3.67;;;4.70;99.90;;;;;;10494451;28;20708;-79
2022/01/21 00:43:49;;;;;;;9.67;3.73;;;4.70;99.90;;;;;;10500738;28;20275;-78
2022/01/21 00:48:55;;;;;;;4.00;2.87;;;4.70;99.90;;;;;;10489332;28;20229;-79
2022/01/21 00:53:57;;;;;;;5.13;3.40;;;4.80;99.90;;;;;;10499747;28;20204;-79
2022/01/21 00:59:00;;;;;;;6.67;2.70;;;4.90;99.90;;;;;;10473760;28;20311;-78
2022/01/21 01:04:03;;;;;;;8.20;3.13;;;5.00;99.90;;;;;;10485667;28;20209;-78
2022/01/21 01:09:05;;;;;;;4.67;3.30;;;5.00;99.90;;;;;;10500747;28;20586;-78
2022/01/21 01:30:12;;;;;;;3.73;2.53;;;5.10;99.90;;;;;;10476035;28;20189;-77
2022/01/21 01:35:17;;;;;;;8.87;2.80;;;5.10;99.90;;;;;;10455729;28;20220;-78
2022/01/21 01:40:24;;;;;;;6.17;3.20;;;5.10;99.90;;;;;;10482444;28;20200;-78
2022/01/21 01:50:48;;;;;;;5.00;2.73;;;5.10;99.90;;;;;;10455533;28;20273;-77
2022/01/21 01:55:50;;;;;;;6.53;2.80;;;5.10;99.90;;;;;;10480120;28;20204;-80
2022/01/21 02:00:56;;;;;;;4.83;3.37;;;5.10;99.90;;;;;;10502597;28;20281;-79
2022/01/21 02:05:59;;;;;;;5.17;2.80;;;5.10;99.90;;;;;;10479971;28;20255;-79
2022/01/21 02:11:01;;;;;;;5.23;2.77;;;5.10;99.90;;;;;;10488564;28;20211;-80
2022/01/21 02:16:11;;;;;;;9.10;4.30;;;5.10;99.90;;;;;;10502474;28;20220;-80
2022/01/21 02:21:39;;;;;;;6.23;3.43;;;5.00;99.90;;;;;;10492732;28;20699;-78
2022/01/21 02:26:42;;;;;;;6.40;3.10;;;5.00;99.90;;;;;;10477696;28;20224;-78
2022/01/21 02:31:45;;;;;;;7.90;3.33;;;5.00;99.90;;;;;;10478326;28;20726;-78
2022/01/21 02:36:48;;;;;;;7.03;3.33;;;5.00;99.90;;;;;;10494777;28;20307;-78
2022/01/21 02:41:50;;;;;;;4.20;3.40;;;4.90;99.90;;;;;;10495650;28;20204;-78
2022/01/21 02:46:56;;;;;;;5.97;3.37;;;5.00;99.90;;;;;;10495489;28;20758;-78
2022/01/21 02:52:02;;;;;;;5.10;3.23;;;5.00;99.90;;;;;;10473222;28;20648;-79
2022/01/21 02:57:09;;;;;;;6.03;3.17;;;4.90;99.90;;;;;;10490674;28;20220;-78
2022/01/21 03:02:11;;;;;;;7.03;3.50;;;4.90;99.90;;;;;;10496639;28;20204;-78
2022/01/21 03:07:15;;;;;;;8.30;3.17;;;4.90;99.90;;;;;;10489955;28;20224;-79
2022/01/21 03:12:17;;;;;;;3.70;2.50;;;4.90;99.90;;;;;;10497323;28;20629;-77
2022/01/21 03:17:19;;;;;;;6.33;2.80;;;5.00;99.90;;;;;;10504085;28;20252;-78
2022/01/21 03:22:23;;;;;;;7.77;3.10;;;4.90;99.90;;;;;;10503703;28;20204;-77
2022/01/21 03:27:25;;;;;;;10.23;4.13;;;5.00;99.90;;;;;;10500122;28;20232;-79
2022/01/21 03:32:27;;;;;;;6.13;3.40;;;4.90;99.90;;;;;;10505818;28;20206;-79
2022/01/21 03:37:31;;;;;;;6.50;3.20;;;4.90;99.90;;;;;;10481013;28;20222;-79
2022/01/21 03:42:33;;;;;;;6.90;3.47;;;4.90;99.90;;;;;;10505792;28;20287;-79
2022/01/21 03:47:35;;;;;;;6.23;3.40;;;4.90;99.90;;;;;;10500056;28;20255;-78
2022/01/21 03:52:39;;;;;;;6.57;3.67;;;4.90;99.90;;;;;;10505489;28;20208;-80
2022/01/21 03:57:41;;;;;;;8.77;4.00;;;4.90;99.90;;;;;;10484615;28;20311;-79
2022/01/21 04:02:43;;;;;;;5.17;3.27;;;4.90;99.90;;;;;;10507569;28;20206;-79
2022/01/21 04:07:52;;;;;;;4.77;3.60;;;4.90;99.90;;;;;;10490628;28;20236;-79
2022/01/21 04:12:54;;;;;;;8.40;3.80;;;4.90;99.90;;;;;;10508380;28;20288;-79
2022/01/21 04:17:56;;;;;;;5.97;3.60;;;4.80;99.90;;;;;;10508314;28;20219;-79
2022/01/21 04:23:01;;;;;;;6.40;3.20;;;4.80;99.90;;;;;;10508452;28;20192;-78
2022/01/21 04:28:04;;;;;;;6.57;4.10;;;4.80;99.90;;;;;;10506898;28;20833;-79
2022/01/21 04:33:07;;;;;;;7.80;4.40;;;4.70;99.90;;;;;;10508833;28;20212;-79
2022/01/21 04:38:14;;;;;;;8.00;3.60;;;4.70;99.90;;;;;;10497351;28;20232;-78
2022/01/21 04:48:36;;;;;;;11.43;4.20;;;4.70;99.90;;;;;;10508847;28;20704;-79
2022/01/21 04:53:41;;;;;;;7.30;3.80;;;4.80;99.90;;;;;;10501244;28;20196;-77
2022/01/21 04:59:16;;;;;;;7.80;4.13;;;4.80;99.90;;;;;;10489175;28;20220;-77
2022/01/21 05:04:19;;;;;;;7.33;4.87;;;4.80;99.90;;;;;;10488046;28;20209;-77
2022/01/21 05:09:29;;;;;;;9.57;4.17;;;4.70;99.90;;;;;;10485839;28;20204;-79
2022/01/21 05:14:45;;;;;;;7.10;4.07;;;4.70;99.90;;;;;;10500574;28;20192;-78
2022/01/21 05:19:48;;;;;;;9.10;5.00;;;4.70;99.90;;;;;;10498771;28;20193;-79
2022/01/21 05:25:17;;;;;;;10.53;4.40;;;4.70;99.90;;;;;;10496396;28;20597;-78
2022/01/21 05:30:20;;;;;;;6.23;4.10;;;4.80;99.90;;;;;;10501665;28;20204;-77
2022/01/21 05:35:46;;;;;;;9.20;4.40;;;4.70;99.90;;;;;;10501186;28;20220;-78
2022/01/21 05:41:11;;;;;;;7.90;3.97;;;4.70;99.90;;;;;;10501949;28;20598;-77
2022/01/21 05:46:54;;;;;;;12.50;4.40;;;4.70;99.90;;;;;;10495194;28;20220;-78
2022/01/21 05:52:20;;;;;;;7.93;4.50;;;4.60;99.90;;;;;;10504074;28;20668;-78
2022/01/21 05:57:56;;;;;;;7.83;4.23;;;4.70;99.90;;;;;;10458458;28;20231;-78
2022/01/21 06:02:58;;;;;;;11.23;4.87;;;4.60;99.90;;;;;;10499500;28;20220;-78
2022/01/21 06:08:01;;;;;;;7.33;4.60;;;4.70;99.90;;;;;;10494345;28;20225;-79
2022/01/21 06:13:06;;;;;;;7.70;4.90;;;4.70;99.90;;;;;;10473534;28;20218;-78
2022/01/21 06:18:08;;;;;;;8.43;3.90;;;4.70;99.90;;;;;;10487249;28;20244;-78
2022/01/21 06:23:10;;;;;;;10.30;4.60;;;4.70;99.90;;;;;;10491942;28;20280;-79
2022/01/21 06:28:14;;;;;;;11.17;5.00;;;4.70;99.90;;;;;;10503961;28;20980;-78
2022/01/21 06:33:16;;;;;;;8.80;4.33;;;4.80;99.90;;;;;;10503281;28;20211;-76
2022/01/21 06:38:19;;;;;;;6.87;3.97;;;4.80;99.90;;;;;;10504597;28;20220;-77
2022/01/21 06:43:23;;;;;;;11.73;5.00;;;4.80;99.90;;;;;;10502899;28;20279;-80
2022/01/21 06:48:25;;;;;;;8.40;4.40;;;4.80;99.90;;;;;;10503251;28;20228;-79
2022/01/21 06:53:27;;;;;;;8.40;4.27;;;4.80;99.90;;;;;;10529527;28;20216;-79
2022/01/21 06:58:30;;;;;;;15.13;5.50;;;4.80;99.90;;;;;;10513307;28;20216;-79
2022/01/21 07:03:33;;;;;;;11.67;5.23;;;4.80;99.90;;;;;;10511269;28;20280;-78
2022/01/21 07:08:35;;;;;;;6.90;5.23;;;4.80;99.90;;;;;;10494177;28;20224;-78
2022/01/21 07:13:38;;;;;;;7.93;5.13;;;4.80;99.90;;;;;;10507647;28;20204;-79
2022/01/21 07:18:40;;;;;;;11.40;6.03;;;4.80;99.90;;;;;;10519552;28;20220;-79
2022/01/21 07:23:42;;;;;;;6.23;4.90;;;4.80;99.90;;;;;;10506118;28;20196;-79
2022/01/21 07:28:46;;;;;;;9.90;5.13;;;4.80;99.90;;;;;;10506155;28;20711;-79
2022/01/21 07:33:48;;;;;;;10.10;5.00;;;4.80;99.90;;;;;;10507391;28;20675;-78
2022/01/21 07:38:50;;;;;;;11.37;6.40;;;4.80;99.90;;;;;;10483833;28;20231;-78
2022/01/21 07:43:54;;;;;;;10.67;5.87;;;4.80;99.90;;;;;;10498962;28;20316;-77
2022/01/21 07:48:56;;;;;;;10.77;4.80;;;4.80;99.90;;;;;;10498352;28;20228;-77
2022/01/21 07:53:59;;;;;;;12.23;6.10;;;4.80;99.90;;;;;;10503607;28;20204;-79
2022/01/21 07:59:05;;;;;;;9.20;5.77;;;4.70;99.90;;;;;;10490189;28;20212;-79
2022/01/21 08:04:08;;;;;;;9.77;5.23;;;4.80;99.90;;;;;;10507554;28;20211;-78
2022/01/21 08:09:10;;;;;;;10.33;6.53;;;4.90;99.90;;;;;;10492244;28;20277;-79
2022/01/21 08:14:13;;;;;;;11.67;6.27;;;4.90;99.90;;;;;;10509270;28;20595;-79
2022/01/21 08:19:15;;;;;;;10.73;6.53;;;5.00;99.90;;;;;;10490628;28;20216;-76
2022/01/21 08:24:18;;;;;;;11.07;5.90;;;5.10;99.90;;;;;;10485198;28;20200;-77
2022/01/21 08:29:21;;;;;;;10.27;6.67;;;5.10;99.90;;;;;;10482832;28;20274;-76
2022/01/21 08:34:23;;;;;;;9.77;6.30;;;5.30;99.90;;;;;;10482634;28;20665;-77
2022/01/21 08:39:29;;;;;;;13.80;5.70;;;5.30;99.90;;;;;;10465088;28;20297;-77
2022/01/21 08:44:35;;;;;;;10.43;6.10;;;5.30;99.90;;;;;;10484383;28;20208;-76
2022/01/21 08:49:39;;;;;;;9.50;5.47;;;5.30;99.90;;;;;;10482470;28;20637;-77
2022/01/21 08:54:41;;;;;;;11.13;6.93;;;5.30;99.90;;;;;;10485410;28;20258;-77
2022/01/21 08:59:46;;;;;;;9.67;6.63;;;5.40;99.90;;;;;;10482035;28;20192;-76
2022/01/21 09:04:48;;;;;;;11.60;6.70;;;5.40;99.90;;;;;;10483925;28;20224;-76
2022/01/21 09:09:50;;;;;;;11.30;7.33;;;5.40;99.70;;;;;;10487652;28;20205;-78
2022/01/21 09:14:54;;;;;;;12.00;6.60;;;5.50;99.80;;;;;;10487907;28;20210;-77
2022/01/21 09:19:56;;;;;;;12.30;6.60;;;5.50;99.90;;;;;;10501502;28;20610;-77
2022/01/21 09:25:01;;;;;;;16.10;8.70;;;5.60;99.90;;;;;;10500177;28;20220;-76
2022/01/21 09:30:08;;;;;;;10.67;7.40;;;5.70;99.90;;;;;;10499267;28;20295;-79
2022/01/21 09:35:10;;;;;;;13.20;7.10;;;5.70;99.70;;;;;;10494366;28;20232;-76
2022/01/21 09:40:14;;;;;;;16.10;6.93;;;5.70;99.50;;;;;;10495504;28;20295;-77
2022/01/21 09:45:22;;;;;;;7.33;6.50;;;5.80;99.70;;;;;;10498867;28;20303;-79
2022/01/21 09:50:24;;;;;;;11.73;6.87;;;5.80;99.70;;;;;;10498056;28;20734;-78
2022/01/21 09:55:26;;;;;;;8.80;6.77;;;5.90;99.60;;;;;;10496186;28;20224;-76
2022/01/21 10:00:29;;;;;;;14.60;7.77;;;6.00;99.90;;;;;;10493349;28;20193;-77
2022/01/21 10:05:32;;;;;;;10.80;7.07;;;6.10;99.60;;;;;;10494528;28;20224;-77
2022/01/21 10:10:35;;;;;;;10.07;6.70;;;6.10;99.50;;;;;;10498726;28;20202;-79
2022/01/21 10:15:38;;;;;;;11.63;6.23;;;6.20;99.60;;;;;;10497922;28;20224;-79
2022/01/21 10:20:57;;;;;;;9.30;5.90;;;6.30;99.40;;;;;;10499680;28;20291;-79
2022/01/21 10:26:02;;;;;;;9.87;7.27;;;6.40;99.00;;;;;;10497664;28;20339;-79
2022/01/21 10:31:12;;;;;;;10.90;6.77;;;6.40;99.10;;;;;;10499897;28;20197;-78
2022/01/21 10:36:23;;;;;;;7.17;5.80;;;6.50;98.70;;;;;;10498674;28;20734;-78
2022/01/21 10:41:31;;;;;;;14.20;5.83;;;6.40;98.20;;;;;;10501375;28;20215;-79
2022/01/21 10:46:35;;;;;;;6.70;6.00;;;6.30;98.30;;;;;;10498467;28;20234;-79
2022/01/21 10:51:39;;;;;;;7.20;5.67;;;6.20;98.80;;;;;;10498333;28;20200;-79
2022/01/21 10:56:42;;;;;;;10.90;6.40;;;6.10;98.80;;;;;;10497640;28;20247;-78
2022/01/21 11:01:58;;;;;;;14.80;5.90;;;6.20;99.30;;;;;;10499844;28;20213;-79
2022/01/21 11:07:01;;;;;;;7.53;5.93;;;6.30;98.50;;;;;;10498854;28;20759;-78
2022/01/21 11:12:11;;;;;;;8.67;6.10;;;6.30;99.00;;;;;;10499274;28;20280;-77
2022/01/21 11:17:16;;;;;;;14.67;5.90;;;6.40;98.70;;;;;;10483557;28;20228;-77
2022/01/21 11:22:18;;;;;;;7.23;5.43;;;6.50;98.20;;;;;;10501341;28;20197;-78
2022/01/21 11:27:20;;;;;;;7.50;4.63;;;6.50;97.50;;;;;;10500795;28;20220;-78
2022/01/21 11:32:23;;;;;;;7.90;4.30;;;6.50;96.60;;;;;;10502535;28;20250;-78
2022/01/21 11:37:27;;;;;;;7.83;4.43;;;6.40;96.30;;;;;;10488908;28;20232;-76
2022/01/21 11:42:30;;;;;;;11.00;4.73;;;6.30;97.10;;;;;;10507802;28;20200;-78
2022/01/21 11:47:50;;;;;;;7.77;4.57;;;6.40;97.10;;;;;;10500448;28;20229;-77
2022/01/21 11:52:52;;;;;;;9.20;4.10;;;6.30;96.90;;;;;;10504020;28;20661;-78
2022/01/21 11:58:12;;;;;;;6.20;4.07;;;6.40;97.20;;;;;;10505546;28;20303;-78
2022/01/21 12:03:15;;;;;;;8.00;4.30;;;6.40;96.90;;;;;;10505742;28;20208;-79
2022/01/21 12:08:47;;;;;;;6.10;4.10;;;6.40;96.30;;;;;;10505551;28;20220;-79
2022/01/21 12:13:49;;;;;;;6.43;3.50;;;6.30;96.70;;;;;;10509831;28;20664;-78
2022/01/21 12:19:25;;;;;;;8.80;4.53;;;6.40;97.60;;;;;;10483814;28;20700;-78
2022/01/21 12:24:54;;;;;;;6.43;3.77;;;6.40;97.00;;;;;;10495605;28;20204;-77
2022/01/21 12:30:29;;;;;;;5.83;4.40;;;6.40;97.20;;;;;;10491013;28;20219;-75
2022/01/21 12:35:37;;;;;;;7.27;3.93;;;6.40;98.00;;;;;;10490090;28;20236;-76
2022/01/21 12:40:39;;;;;;;5.40;4.03;;;6.40;98.40;;;;;;10497309;28;20291;-76
2022/01/21 12:46:00;;;;;;;12.57;4.20;;;6.50;98.70;;;;;;10495424;28;20737;-77
2022/01/21 12:51:21;;;;;;;7.63;4.00;;;6.50;98.00;;;;;;10496768;28;20212;-76
2022/01/21 12:56:23;;;;;;;6.73;4.60;;;6.50;97.50;;;;;;10496324;28;20699;-76
2022/01/21 13:01:26;;;;;;;9.97;3.90;;;6.50;98.40;;;;;;10494627;28;20200;-76
2022/01/21 13:06:37;;;;;;;6.23;3.53;;;6.40;98.20;;;;;;10495559;28;20232;-76
2022/01/21 13:11:43;;;;;;;8.10;4.20;;;6.50;98.10;;;;;;10495865;28;20215;-76
2022/01/21 13:16:45;;;;;;;6.13;3.33;;;6.40;97.70;;;;;;10494756;28;21397;-75
2022/01/21 13:21:50;;;;;;;6.00;3.47;;;6.50;98.40;;;;;;10481107;28;20648;-76
2022/01/21 13:26:53;;;;;;;6.33;3.20;;;6.50;98.20;;;;;;10477900;28;20213;-75
2022/01/21 13:31:58;;;;;;;9.30;4.07;;;6.50;98.30;;;;;;10482720;28;20201;-76
2022/01/21 13:37:02;;;;;;;6.20;3.30;;;6.60;98.00;;;;;;10487583;28;20212;-77
2022/01/21 13:42:09;;;;;;;11.93;3.50;;;6.60;97.60;;;;;;10467173;28;20251;-77
2022/01/21 13:47:28;;;;;;;4.50;2.70;;;6.60;98.30;;;;;;10482549;28;20220;-76
2022/01/21 13:52:44;;;;;;;5.33;3.17;;;6.60;98.60;;;;;;10480735;28;20193;-75
2022/01/21 13:57:46;;;;;;;5.93;3.10;;;6.60;97.70;;;;;;10485210;28;20239;-77
2022/01/21 14:03:04;;;;;;;7.50;3.07;;;6.60;97.90;;;;;;10484384;28;20246;-77
2022/01/21 14:08:11;;;;;;;4.70;2.90;;;6.50;98.50;;;;;;10487654;28;20228;-75
2022/01/21 14:13:14;;;;;;;6.97;3.23;;;6.50;98.50;;;;;;10482767;28;20197;-77
2022/01/21 14:18:17;;;;;;;7.27;2.50;;;6.60;97.90;;;;;;10485484;28;20307;-77
2022/01/21 14:23:26;;;;;;;5.70;3.27;;;6.50;98.10;;;;;;10485790;28;20224;-78
2022/01/21 14:28:43;;;;;;;9.97;3.83;;;6.50;99.10;;;;;;10496492;28;20221;-77
2022/01/21 14:33:45;;;;;;;6.33;2.73;;;6.60;99.00;;;;;;10487389;28;20235;-77
2022/01/21 14:38:50;;;;;;;8.50;3.50;;;6.60;98.80;;;;;;10444382;28;1089074;-77
2022/01/21 14:43:54;;;;;;;11.50;3.30;;;6.60;98.10;;;;;;10487285;28;20219;-76
2022/01/21 14:48:57;;;;;;;9.37;3.47;;;6.60;98.60;;;;;;10487147;28;20224;-78
2022/01/21 14:54:11;;;;;;;5.43;3.13;;;6.60;98.40;;;;;;10499606;28;20206;-77
2022/01/21 14:59:15;;;;;;;4.60;2.33;;;6.60;99.00;;;;;;10490079;28;20212;-77
2022/01/21 15:04:17;;;;;;;6.40;3.70;;;6.60;98.40;;;;;;10489040;28;20208;-77
2022/01/21 15:09:31;;;;;;;7.03;3.47;;;6.60;99.00;;;;;;10492088;28;20577;-78
2022/01/21 15:14:43;;;;;;;5.20;3.47;;;6.50;98.30;;;;;;10502525;28;20193;-78
2022/01/21 15:19:49;;;;;;;7.00;3.37;;;6.50;98.20;;;;;;10494150;28;20197;-76
2022/01/21 15:24:54;;;;;;;7.37;3.70;;;6.40;98.30;;;;;;10495070;28;20223;-78
2022/01/21 15:29:56;;;;;;;4.93;3.20;;;6.40;98.40;;;;;;10494754;28;20227;-77
2022/01/21 15:34:58;;;;;;;6.73;3.17;;;6.40;98.90;;;;;;10519886;28;20308;-77
2022/01/21 15:40:02;;;;;;;3.80;2.23;;;6.40;97.90;;;;;;10499503;28;20223;-77
2022/01/21 15:45:05;;;;;;;3.07;2.73;;;6.30;98.40;;;;;;10505665;28;20605;-78
2022/01/21 15:50:11;;;;;;;4.70;3.40;;;6.30;99.00;;;;;;10507594;28;20307;-78
2022/01/21 15:55:14;;;;;;;4.77;2.90;;;6.30;98.90;;;;;;10507480;28;20221;-77
2022/01/21 16:00:17;;;;;;;5.13;2.60;;;6.40;98.60;;;;;;10508737;28;20254;-79
2022/01/21 16:05:19;;;;;;;4.33;3.27;;;6.40;98.90;;;;;;10507682;28;20344;-77
2022/01/21 16:10:23;;;;;;;4.40;3.50;;;6.30;98.70;;;;;;10491145;28;20637;-78
2022/01/21 16:15:26;;;;;;;5.47;3.10;;;6.20;98.70;;;;;;10509651;28;20243;-76
2022/01/21 16:20:28;;;;;;;7.40;3.53;;;6.30;98.90;;;;;;10505864;28;20568;-78
2022/01/21 16:25:33;;;;;;;8.70;4.37;;;6.30;99.50;;;;;;10488698;28;20224;-78
2022/01/21 16:30:35;;;;;;;5.87;3.63;;;6.30;98.80;;;;;;10505647;28;20225;-78
2022/01/21 16:35:37;;;;;;;6.47;3.77;;;6.30;99.10;;;;;;10504554;28;20315;-77
2022/01/21 16:40:41;;;;;;;9.70;3.87;;;6.30;98.80;;;;;;10486470;28;20200;-79
2022/01/21 16:45:43;;;;;;;5.53;3.23;;;6.30;99.00;;;;;;10500500;28;20307;-80
2022/01/21 16:50:46;;;;;;;4.03;2.83;;;6.30;97.20;;;;;;10503926;28;20227;-79
2022/01/21 16:55:49;;;;;;;5.73;3.17;;;6.20;98.90;;;;;;10504508;28;20581;-80
2022/01/21 17:00:51;;;;;;;4.30;3.20;;;6.20;99.10;;;;;;10505362;28;20295;-80
2022/01/21 17:05:54;;;;;;;5.53;3.00;;;6.20;99.00;;;;;;10505665;28;20412;-80
2022/01/21 17:11:00;;;;;;;5.23;2.83;;;6.20;99.20;;;;;;10510380;28;20201;-79
2022/01/21 17:16:02;;;;;;;4.13;2.90;;;6.20;98.00;;;;;;10499261;28;20217;-79
2022/01/21 17:21:05;;;;;;;6.90;3.00;;;6.10;99.30;;;;;;10499511;28;20688;-77
2022/01/21 17:26:09;;;;;;;4.70;3.30;;;6.10;98.90;;;;;;10499282;28;20696;-79
2022/01/21 17:31:11;;;;;;;8.03;4.10;;;6.10;99.20;;;;;;10499503;28;20204;-78
2022/01/21 17:36:13;;;;;;;6.80;3.77;;;6.10;98.70;;;;;;10498385;28;20224;-78
2022/01/21 17:41:17;;;;;;;7.43;4.03;;;6.10;99.70;;;;;;10499758;28;20204;-78
2022/01/21 17:46:19;;;;;;;4.80;3.60;;;6.10;99.70;;;;;;10498416;28;20700;-78
2022/01/21 17:51:21;;;;;;;5.20;3.60;;;6.10;99.80;;;;;;10499593;28;20283;-77
2022/01/21 17:56:25;;;;;;;8.80;3.67;;;6.20;99.40;;;;;;10499524;28;20581;-78
2022/01/21 18:01:27;;;;;;;6.70;3.47;;;6.10;98.60;;;;;;10499328;28;20200;-78
2022/01/21 18:06:29;;;;;;;6.50;2.83;;;6.10;98.60;;;;;;10499007;28;20239;-79
2022/01/21 18:11:32;;;;;;;9.83;4.53;;;6.10;98.00;;;;;;10499518;28;20202;-78
2022/01/21 18:16:34;;;;;;;7.90;3.30;;;6.00;99.60;;;;;;10500912;28;20216;-78
2022/01/21 18:21:37;;;;;;;3.90;3.20;;;6.00;98.80;;;;;;10499249;28;20201;-78
2022/01/21 18:26:40;;;;;;;4.80;3.10;;;6.00;99.90;;;;;;10493721;28;20220;-77
2022/01/21 18:31:42;;;;;;;6.27;3.30;;;6.00;98.50;;;;;;10492654;28;20197;-77
2022/01/21 18:36:44;;;;;;;5.40;3.90;;;6.00;99.10;;;;;;10493460;28;20228;-76
2022/01/21 18:41:48;;;;;;;8.27;3.63;;;6.00;98.40;;;;;;10495414;28;20657;-78
2022/01/21 18:46:50;;;;;;;7.40;3.83;;;5.90;98.80;;;;;;10485993;28;20307;-75
2022/01/21 18:51:53;;;;;;;7.20;4.13;;;5.90;99.50;;;;;;10492886;28;20197;-79
2022/01/21 18:56:57;;;;;;;10.90;5.40;;;5.90;98.60;;;;;;10491875;28;20256;-77
2022/01/21 19:01:59;;;;;;;5.90;4.43;;;6.00;99.60;;;;;;10493658;28;20200;-77
2022/01/21 19:07:01;;;;;;;8.33;3.87;;;6.00;99.30;;;;;;10492765;28;20212;-77
2022/01/21 19:12:05;;;;;;;6.00;3.90;;;6.00;99.60;;;;;;10493007;28;20196;-78
2022/01/21 19:17:07;;;;;;;7.83;4.07;;;6.00;98.80;;;;;;10474352;28;20217;-78
2022/01/21 19:22:09;;;;;;;4.60;3.53;;;6.00;99.10;;;;;;10492857;28;20207;-77
2022/01/21 19:27:13;;;;;;;7.63;4.73;;;5.90;98.90;;;;;;10491259;28;20982;-78
2022/01/21 19:32:17;;;;;;;5.03;4.10;;;5.80;99.10;;;;;;10492573;28;20211;-77
2022/01/21 19:37:19;;;;;;;8.07;5.37;;;5.80;99.00;;;;;;10497158;28;20227;-79
2022/01/21 19:42:22;;;;;;;8.30;4.50;;;5.70;98.90;;;;;;10498949;28;20200;-78
2022/01/21 19:47:32;;;;;;;7.57;4.47;;;5.80;98.20;;;;;;10498280;28;20220;-78
2022/01/21 19:52:34;;;;;;;5.40;4.57;;;5.60;98.80;;;;;;10484050;28;20227;-78
2022/01/21 19:57:40;;;;;;;7.17;4.00;;;5.60;99.90;;;;;;10515307;28;20217;-78
2022/01/21 20:13:28;;;;;;;8.30;4.90;;;5.60;99.60;;;;;;10500366;28;20189;-78
2022/01/21 20:18:30;;;;;;;8.70;4.80;;;5.60;99.80;;;;;;10497152;28;20247;-80
2022/01/21 20:23:36;;;;;;;8.13;4.97;;;5.60;99.90;;;;;;10500553;28;20198;-80
2022/01/21 20:28:41;;;;;;;8.23;5.00;;;5.60;99.90;;;;;;10497694;28;20232;-79
2022/01/21 20:33:46;;;;;;;7.47;5.23;;;5.60;99.80;;;;;;10487082;28;20257;-78
2022/01/21 20:39:11;;;;;;;5.90;4.87;;;5.50;99.90;;;;;;10503829;28;20226;-78
2022/01/21 20:44:17;;;;;;;7.43;5.43;;;5.40;99.90;;;;;;10503390;28;20612;-79
2022/01/21 20:49:20;;;;;;;10.53;5.00;;;5.40;99.90;;;;;;10484872;28;20224;-79
2022/01/21 20:54:23;;;;;;;11.20;5.53;;;5.40;99.90;;;;;;10503041;28;20205;-79
2022/01/21 20:59:29;;;;;;;5.73;4.90;;;5.40;99.90;;;;;;10503454;28;20270;-79
2022/01/21 21:04:31;;;;;;;10.20;5.30;;;5.40;99.90;;;;;;10504714;28;20207;-80
2022/01/21 21:09:34;;;;;;;11.03;5.53;;;5.40;99.90;;;;;;10501108;28;20235;-80
2022/01/21 21:14:43;;;;;;;6.80;4.80;;;5.30;99.90;;;;;;10503805;28;20202;-80
2022/01/21 21:25:07;;;;;;;8.50;4.93;;;5.10;99.90;;;;;;10502714;28;20220;-80
2022/01/21 21:30:21;;;;;;;6.60;5.23;;;5.00;99.90;;;;;;10501544;28;20343;-79
2022/01/21 22:51:13;;;;;;;10.40;9.30;;;5.10;99.90;;;;;;10491946;28;20216;-76
2022/01/21 23:01:33;;;;;;;10.10;9.03;;;5.10;99.90;;;;;;10493170;28;20192;-77
2022/01/21 23:06:40;;;;;;;10.27;9.17;;;5.10;99.90;;;;;;10493602;28;20349;-77
2022/01/21 23:11:42;;;;;;;14.43;10.60;;;5.10;99.90;;;;;;10493308;28;20216;-78
2022/01/21 23:16:52;;;;;;;10.60;9.70;;;5.10;99.90;;;;;;10491634;28;20220;-77
2022/01/21 23:22:05;;;;;;;13.27;10.03;;;5.10;99.90;;;;;;10492951;28;20196;-77
2022/01/21 23:27:21;;;;;;;16.70;10.00;;;5.20;99.90;;;;;;10491008;28;20224;-78
2022/01/21 23:32:26;;;;;;;12.97;10.37;;;5.20;99.90;;;;;;10495712;28;20278;-76
2022/01/21 23:37:34;;;;;;;11.13;9.80;;;5.20;99.90;;;;;;10498205;28;20277;-77
2022/01/21 23:42:36;;;;;;;9.40;8.50;;;5.20;99.90;;;;;;10498941;28;20196;-78
2022/01/21 23:47:39;;;;;;;12.63;9.43;;;5.30;99.90;;;;;;10500160;28;20223;-77
2022/01/21 23:52:43;;;;;;;11.50;10.03;;;5.20;99.90;;;;;;10500116;28;20568;-78
2022/01/21 23:57:46;;;;;;;11.40;9.70;;;5.30;99.90;;;;;;10482094;28;20695;-77
